Terminal Aerodrome Forecast
Issued by NWS Sioux Falls, SD

Home | Current Version | Previous Version | Text Only | Print | Product List | Glossary On
Versions: 1 2 3 4 5 6 7 8 9 10 11 12 13 14 15 16 17 18
000
FTUS43 KFSD 222300
TAFHON
TAF
KHON 222329Z 2300/2324 04008KT P6SM SCT035 BKN100
      TEMPO 2300/2301 P6SM -SHRA BKN035
     FM230500 09007KT P6SM BKN035
     FM230900 08009KT P6SM VCTS SCT015 OVC035CB
      TEMPO 2311/2314 2SM TSRA BR BKN015CB
     FM231400 11012G19KT 5SM -SHRA BR BKN015 OVC035
     FM231900 14012G20KT P6SM BKN035=

USA.gov is the U.S. government's official web portal to all federal, state and local government web resources and services.